createdAt,value
2019-03-12T00:00:48.542Z,12.00
2019-03-12T00:01:51.260Z,8.00
2019-03-12T00:02:53.994Z,8.00
2019-03-12T00:03:56.966Z,8.00
2019-03-12T00:04:59.654Z,8.00
2019-03-12T00:06:03.295Z,11.00
2019-03-12T00:07:06.257Z,6.50
2019-03-12T00:08:09.278Z,10.00
2019-03-12T00:09:13.359Z,8.00
2019-03-12T00:10:16.226Z,11.00
2019-03-12T00:11:19.354Z,9.00
2019-03-12T00:12:23.125Z,10.00
2019-03-12T00:13:26.388Z,6.00
2019-03-12T00:14:29.583Z,8.50
2019-03-12T00:15:32.327Z,8.00
2019-03-12T00:16:35.205Z,11.00
2019-03-12T00:17:40.917Z,6.00
2019-03-12T00:18:44.129Z,10.00
2019-03-12T00:19:47.241Z,7.00
2019-03-12T00:20:49.920Z,9.00
2019-03-12T00:21:52.746Z,10.00
2019-03-12T00:22:55.437Z,8.00
2019-03-12T00:23:58.208Z,8.00
2019-03-12T00:25:01.179Z,8.00
2019-03-12T00:26:03.920Z,8.50
2019-03-12T00:27:06.683Z,8.00
2019-03-12T00:28:09.521Z,10.00
2019-03-12T00:29:12.271Z,8.00
2019-03-12T00:30:15.288Z,8.00
2019-03-12T00:31:17.969Z,9.00
2019-03-12T00:32:20.798Z,10.00
2019-03-12T00:33:23.837Z,10.00
2019-03-12T00:34:26.728Z,8.00
2019-03-12T00:35:29.450Z,8.00
2019-03-12T00:36:35.167Z,8.00
2019-03-12T00:37:40.764Z,10.00
2019-03-12T00:38:43.828Z,8.00
2019-03-12T00:39:46.578Z,7.50
2019-03-12T00:40:52.080Z,8.00
2019-03-12T00:41:55.687Z,6.50
2019-03-12T00:43:00.056Z,8.00
2019-03-12T00:44:02.811Z,8.00
2019-03-12T00:45:06.117Z,11.00
2019-03-12T00:46:08.803Z,7.00
2019-03-12T00:47:11.721Z,10.00
2019-03-12T00:48:17.798Z,5.00
2019-03-12T00:49:20.606Z,7.50
2019-03-12T00:50:23.657Z,10.00
2019-03-12T00:51:26.299Z,7.50
2019-03-12T00:52:29.071Z,7.00
2019-03-12T00:53:32.976Z,12.50
2019-03-12T00:54:36.038Z,8.00
2019-03-12T00:55:39.162Z,12.00
2019-03-12T00:56:41.932Z,8.00
2019-03-12T00:57:45.024Z,9.00
2019-03-12T00:58:47.759Z,9.00
2019-03-12T00:59:50.648Z,12.00
2019-03-12T01:00:54.589Z,8.00
2019-03-12T01:01:57.916Z,10.00
2019-03-12T01:03:03.703Z,8.50
2019-03-12T01:04:06.536Z,7.50
2019-03-12T01:05:09.355Z,11.50
2019-03-12T01:06:12.525Z,8.50
2019-03-12T01:07:18.505Z,9.00
2019-03-12T01:08:21.212Z,8.00
2019-03-12T01:09:23.937Z,8.00
2019-03-12T01:10:26.777Z,10.00
2019-03-12T01:11:29.654Z,8.00
2019-03-12T01:12:32.349Z,8.00
2019-03-12T01:13:35.340Z,8.00
2019-03-12T01:14:38.105Z,8.00
2019-03-12T01:15:41.038Z,8.50
2019-03-12T01:16:43.745Z,6.50
2019-03-12T01:17:46.601Z,6.00
2019-03-12T01:18:49.426Z,5.00
2019-03-12T01:19:52.329Z,10.00
2019-03-12T01:20:55.045Z,8.00
2019-03-12T01:21:57.775Z,8.50
2019-03-12T01:23:00.639Z,10.50
2019-03-12T01:24:03.484Z,10.50
2019-03-12T01:25:06.730Z,13.00
2019-03-12T01:26:09.632Z,10.50
2019-03-12T01:27:12.544Z,10.00
2019-03-12T01:28:15.363Z,9.00
2019-03-12T01:29:18.186Z,12.00
2019-03-12T01:30:21.019Z,12.50
2019-03-12T01:31:24.344Z,10.00
2019-03-12T01:32:27.102Z,8.00
2019-03-12T01:33:29.910Z,11.50
2019-03-12T01:34:32.585Z,9.00
2019-03-12T01:35:35.456Z,10.00
2019-03-12T01:36:38.230Z,9.50
2019-03-12T01:37:41.454Z,11.00
2019-03-12T01:38:44.306Z,14.00
2019-03-12T01:39:47.193Z,11.50
2019-03-12T01:40:50.004Z,10.50
2019-03-12T01:41:52.923Z,14.00
2019-03-12T01:42:56.215Z,10.00
2019-03-12T01:43:59.034Z,11.50
2019-03-12T01:45:03.761Z,10.00
2019-03-12T01:46:06.463Z,8.50
2019-03-12T01:47:09.314Z,8.50
2019-03-12T01:48:16.324Z,16.50
2019-03-12T01:49:19.182Z,10.00
2019-03-12T01:50:22.354Z,10.00
2019-03-12T01:51:25.187Z,11.50
2019-03-12T01:52:28.097Z,13.50
2019-03-12T01:53:30.892Z,10.00
2019-03-12T01:54:34.114Z,12.00
2019-03-12T01:55:36.977Z,11.00
2019-03-12T01:56:40.308Z,12.00
2019-03-12T01:57:43.312Z,10.00
2019-03-12T01:58:46.155Z,11.50
2019-03-12T01:59:48.992Z,12.00
2019-03-12T02:00:52.806Z,11.50
2019-03-12T02:01:55.658Z,13.00
2019-03-12T02:02:58.930Z,9.00
2019-03-12T02:04:01.759Z,12.00
2019-03-12T02:05:04.637Z,11.50
2019-03-12T02:06:07.459Z,11.00
2019-03-12T02:07:10.713Z,16.00
2019-03-12T02:08:13.649Z,9.50
2019-03-12T02:09:16.915Z,12.50
2019-03-12T02:10:19.811Z,13.00
2019-03-12T02:11:22.626Z,11.00
2019-03-12T02:12:25.515Z,13.50
2019-03-12T02:13:28.390Z,11.00
2019-03-12T02:14:31.505Z,14.50
2019-03-12T02:15:34.368Z,10.00
2019-03-12T02:16:37.673Z,15.00
2019-03-12T02:17:40.580Z,10.00
2019-03-12T02:18:49.711Z,14.00
2019-03-12T02:19:52.611Z,13.50
2019-03-12T02:20:55.840Z,11.50
2019-03-12T02:21:58.691Z,15.50
2019-03-12T02:23:02.601Z,14.50
2019-03-12T02:24:05.502Z,11.00
2019-03-12T02:25:08.815Z,11.50
2019-03-12T02:26:11.773Z,15.00
2019-03-12T02:27:14.901Z,12.00
2019-03-12T02:28:17.793Z,9.00
2019-03-12T02:29:20.655Z,15.00
2019-03-12T02:30:23.504Z,12.00
2019-03-12T02:31:26.352Z,13.50
2019-03-12T02:32:29.649Z,12.50
2019-03-12T02:33:33.167Z,16.00
2019-03-12T02:34:36.695Z,11.00
2019-03-12T02:35:39.608Z,16.00
2019-03-12T02:36:45.556Z,15.50
2019-03-12T02:37:48.916Z,16.00
2019-03-12T02:38:51.753Z,12.50
2019-03-12T02:39:54.935Z,14.50
2019-03-12T02:40:57.784Z,14.00
2019-03-12T02:42:00.867Z,12.00
2019-03-12T02:43:03.722Z,16.50
2019-03-12T02:44:06.572Z,16.00
2019-03-12T02:45:09.772Z,15.00
2019-03-12T02:46:12.931Z,16.00
2019-03-12T02:47:15.865Z,13.50
2019-03-12T02:48:19.049Z,15.00
2019-03-12T02:49:22.383Z,17.50
2019-03-12T02:50:25.178Z,15.00
2019-03-12T02:51:28.429Z,10.50
2019-03-12T02:52:31.282Z,17.00
2019-03-12T02:53:34.574Z,12.50
2019-03-12T02:54:37.479Z,20.00
2019-03-12T02:55:40.315Z,14.50
2019-03-12T02:56:43.491Z,14.00
2019-03-12T02:57:46.406Z,15.50
2019-03-12T02:58:51.229Z,20.00
2019-03-12T02:59:54.079Z,16.50
2019-03-12T03:00:56.917Z,14.00
2019-03-12T03:01:59.751Z,15.50
2019-03-12T03:03:03.077Z,22.00
2019-03-12T03:04:05.918Z,14.00
2019-03-12T03:05:09.021Z,14.00
2019-03-12T03:06:25.870Z,18.50
2019-03-12T03:07:46.689Z,14.00
2019-03-12T03:08:49.627Z,19.50
2019-03-12T03:09:52.879Z,16.00
2019-03-12T03:10:55.748Z,18.00
2019-03-12T03:11:58.898Z,14.50
2019-03-12T03:13:02.096Z,14.00
2019-03-12T03:14:05.051Z,21.00
2019-03-12T03:15:08.481Z,17.00
2019-03-12T03:16:11.378Z,18.00
2019-03-12T03:17:16.371Z,23.50
2019-03-12T03:18:19.497Z,22.50
2019-03-12T03:19:23.203Z,23.50
2019-03-12T03:20:26.408Z,22.00
2019-03-12T03:21:29.315Z,24.00
2019-03-12T03:22:32.143Z,16.00
2019-03-12T03:23:37.015Z,18.00
2019-03-12T03:24:40.280Z,12.00
2019-03-12T03:25:43.955Z,17.00
2019-03-12T03:26:46.862Z,18.00
2019-03-12T03:27:52.114Z,16.00
2019-03-12T03:28:54.955Z,13.50
2019-03-12T03:29:57.790Z,17.50
2019-03-12T03:31:00.703Z,11.50
2019-03-12T03:32:03.689Z,14.00
2019-03-12T03:33:06.590Z,19.00
2019-03-12T03:34:09.526Z,16.00
2019-03-12T03:35:12.462Z,18.00
2019-03-12T03:36:15.663Z,19.50
2019-03-12T03:37:19.035Z,23.50
2019-03-12T03:38:21.960Z,17.50
2019-03-12T03:39:24.785Z,16.50
2019-03-12T03:40:27.634Z,16.00
2019-03-12T03:41:34.501Z,15.00
2019-03-12T03:42:37.156Z,21.00
2019-03-12T03:43:40.003Z,19.50
2019-03-12T03:44:42.847Z,22.00
2019-03-12T03:45:45.746Z,19.00
2019-03-12T03:46:48.592Z,18.00
2019-03-12T03:47:51.659Z,17.50
2019-03-12T03:48:56.649Z,21.50
2019-03-12T03:49:59.629Z,22.00
2019-03-12T03:51:02.548Z,21.50
2019-03-12T03:52:05.822Z,21.50
2019-03-12T03:53:08.726Z,27.00
2019-03-12T03:54:11.615Z,23.00
2019-03-12T03:55:15.007Z,34.50
2019-03-12T03:56:18.011Z,29.00
2019-03-12T03:57:20.862Z,22.50
2019-03-12T03:58:23.767Z,26.50
2019-03-12T03:59:26.613Z,26.50
2019-03-12T04:00:29.463Z,32.00
2019-03-12T04:01:32.637Z,24.50
2019-03-12T04:02:35.454Z,24.00
2019-03-12T04:03:38.739Z,22.50
2019-03-12T04:04:41.571Z,23.00
2019-03-12T04:05:44.403Z,23.00
2019-03-12T04:06:47.338Z,25.00
2019-03-12T04:07:50.649Z,25.00
2019-03-12T04:08:54.046Z,30.50
2019-03-12T04:09:57.051Z,30.50
2019-03-12T04:10:59.919Z,26.50
2019-03-12T04:12:02.799Z,28.00
2019-03-12T04:13:05.957Z,24.00
2019-03-12T04:14:13.354Z,21.00
2019-03-12T04:15:16.418Z,23.00
2019-03-12T04:16:20.598Z,19.50
2019-03-12T04:17:23.427Z,23.50
2019-03-12T04:18:26.368Z,23.50
2019-03-12T04:19:29.213Z,18.50
2019-03-12T04:20:32.357Z,21.50
2019-03-12T04:21:38.207Z,22.50
2019-03-12T04:22:41.529Z,18.00
2019-03-12T04:23:47.454Z,17.00
2019-03-12T04:24:50.277Z,20.50
2019-03-12T04:25:53.126Z,18.00
2019-03-12T04:26:56.261Z,20.00
2019-03-12T04:27:59.139Z,20.00
2019-03-12T04:29:02.520Z,22.00
2019-03-12T04:30:05.557Z,27.00
2019-03-12T04:31:08.412Z,27.00
2019-03-12T04:32:11.312Z,20.00
2019-03-12T04:33:14.429Z,22.50
2019-03-12T04:34:17.807Z,19.00
2019-03-12T04:35:20.733Z,23.00
2019-03-12T04:36:23.600Z,16.50
2019-03-12T04:37:26.427Z,23.50
2019-03-12T04:38:29.248Z,22.00
2019-03-12T04:39:32.563Z,20.00
2019-03-12T04:40:35.790Z,22.00
2019-03-12T04:41:38.649Z,27.00
2019-03-12T04:42:41.534Z,25.50
2019-03-12T04:43:44.379Z,20.00
2019-03-12T04:44:47.217Z,24.50
2019-03-12T04:45:50.126Z,22.00
2019-03-12T04:46:53.339Z,20.00
2019-03-12T04:47:59.686Z,17.00
2019-03-12T04:49:02.924Z,26.50
2019-03-12T04:50:06.517Z,18.50
2019-03-12T04:51:12.823Z,20.00
2019-03-12T04:52:15.692Z,17.50
2019-03-12T04:53:18.575Z,15.50
2019-03-12T04:54:21.403Z,14.50
2019-03-12T04:55:24.247Z,17.50
2019-03-12T04:56:27.167Z,22.00
2019-03-12T04:57:30.480Z,20.50
2019-03-12T04:58:33.870Z,22.50
2019-03-12T04:59:36.693Z,22.00
2019-03-12T05:00:39.544Z,25.50
2019-03-12T05:01:43.044Z,21.00
2019-03-12T05:02:46.407Z,22.00
2019-03-12T05:03:49.236Z,21.50
2019-03-12T05:04:52.088Z,17.00
2019-03-12T05:05:55.367Z,21.50
2019-03-12T05:06:58.294Z,19.50
2019-03-12T05:08:01.604Z,22.00
2019-03-12T05:09:05.867Z,20.00
2019-03-12T05:10:09.062Z,16.00
2019-03-12T05:11:11.901Z,18.00
2019-03-12T05:12:14.731Z,22.00
2019-03-12T05:13:17.664Z,21.50
2019-03-12T05:14:20.868Z,14.50
2019-03-12T05:15:23.694Z,16.00
2019-03-12T05:16:26.564Z,16.00
2019-03-12T05:17:29.394Z,17.50
2019-03-12T05:18:32.322Z,19.50
2019-03-12T05:19:35.448Z,17.00
2019-03-12T05:20:42.581Z,19.00
2019-03-12T05:21:45.411Z,20.00
2019-03-12T05:22:48.293Z,19.50
2019-03-12T05:23:51.262Z,13.50
2019-03-12T05:24:54.141Z,21.00
2019-03-12T05:25:56.964Z,17.50
2019-03-12T05:27:00.132Z,18.00
2019-03-12T05:28:02.955Z,17.50
2019-03-12T05:29:05.855Z,18.00
2019-03-12T05:30:08.703Z,16.00
2019-03-12T05:31:13.831Z,16.50
2019-03-12T05:32:16.660Z,14.50
2019-03-12T05:33:19.828Z,18.50
2019-03-12T05:34:23.358Z,15.50
2019-03-12T05:35:26.339Z,20.50
2019-03-12T05:36:29.609Z,19.00
2019-03-12T05:37:33.375Z,16.50
2019-03-12T05:38:36.231Z,20.00
2019-03-12T05:39:39.480Z,20.00
2019-03-12T05:40:42.333Z,18.50
2019-03-12T05:41:45.513Z,17.00
2019-03-12T05:42:48.364Z,17.00
2019-03-12T05:43:51.187Z,19.00
2019-03-12T05:44:54.094Z,16.50
2019-03-12T05:45:57.393Z,16.00
2019-03-12T05:47:00.261Z,16.00
2019-03-12T05:48:03.188Z,18.00
2019-03-12T05:49:06.020Z,16.50
2019-03-12T05:50:11.720Z,17.50
2019-03-12T05:51:14.548Z,18.00
2019-03-12T05:52:20.293Z,15.00
2019-03-12T05:53:23.144Z,15.00
2019-03-12T05:54:36.389Z,15.00
2019-03-12T05:55:39.263Z,18.00
2019-03-12T05:56:42.086Z,17.00
2019-03-12T05:57:45.027Z,15.50
2019-03-12T05:58:48.293Z,18.00
2019-03-12T05:59:51.145Z,16.50
2019-03-12T06:00:54.103Z,18.50
2019-03-12T06:01:56.949Z,18.00
2019-03-12T06:02:59.857Z,19.00
2019-03-12T06:04:05.587Z,23.50
2019-03-12T06:05:08.425Z,25.00
2019-03-12T06:06:11.361Z,20.50
2019-03-12T06:07:14.811Z,17.00
2019-03-12T06:08:17.654Z,15.00
2019-03-12T06:09:29.744Z,11.50
2019-03-12T06:10:25.126Z,12.00
2019-03-12T06:11:29.667Z,14.50
2019-03-12T06:12:33.672Z,13.00
2019-03-12T06:13:36.551Z,12.50
2019-03-12T06:14:39.398Z,10.50
2019-03-12T06:15:42.697Z,10.00
2019-03-12T06:16:45.552Z,10.00
2019-03-12T06:19:44.459Z,12.50
2019-03-12T06:20:47.348Z,17.50
2019-03-12T06:21:51.886Z,13.50
2019-03-12T06:22:54.857Z,15.00
2019-03-12T06:23:59.896Z,14.00
2019-03-12T06:25:05.165Z,14.50
2019-03-12T06:26:07.995Z,22.00
2019-03-12T06:27:10.995Z,15.50
2019-03-12T06:28:26.016Z,18.00
2019-03-12T06:29:29.027Z,13.50
2019-03-12T06:44:29.259Z,15.00
2019-03-12T06:45:47.731Z,15.00
2019-03-12T06:47:15.637Z,23.00
2019-03-12T06:48:35.945Z,15.00
2019-03-12T06:49:51.355Z,14.00
2019-03-12T06:51:06.362Z,16.50
2019-03-12T06:52:30.901Z,13.00
2019-03-12T06:53:55.865Z,14.50
2019-03-12T06:55:29.891Z,12.00
2019-03-12T06:56:55.500Z,14.00
2019-03-12T06:58:16.168Z,12.50
2019-03-12T06:59:29.242Z,15.50
2019-03-12T07:00:50.070Z,10.00
2019-03-12T07:02:07.502Z,12.50
2019-03-12T07:03:47.069Z,13.50
2019-03-12T07:05:07.804Z,14.00
2019-03-12T07:06:34.219Z,15.00
2019-03-12T07:07:54.289Z,15.50
2019-03-12T07:09:14.155Z,15.50
2019-03-12T07:10:32.592Z,16.50
2019-03-12T07:11:53.053Z,16.50
2019-03-12T07:13:23.873Z,16.00
2019-03-12T07:14:34.081Z,17.50
2019-03-12T07:15:47.846Z,14.00
2019-03-12T07:17:01.222Z,16.00
2019-03-12T07:18:10.053Z,16.00
2019-03-12T07:19:20.509Z,19.00
2019-03-12T07:20:42.081Z,16.50
2019-03-12T07:22:04.139Z,15.00
2019-03-12T07:23:22.607Z,14.50
2019-03-12T07:24:45.218Z,23.50
2019-03-12T07:26:07.233Z,17.50
2019-03-12T07:27:36.386Z,17.50
2019-03-12T07:28:56.407Z,15.50
2019-03-12T07:30:16.409Z,19.00
2019-03-12T07:31:34.490Z,17.50
2019-03-12T07:33:05.258Z,12.25
2019-03-12T07:34:36.507Z,16.00
2019-03-12T07:35:57.256Z,16.50
2019-03-12T07:37:20.647Z,13.00
2019-03-12T07:39:00.053Z,14.50
2019-03-12T07:40:10.012Z,15.50
2019-03-12T07:41:34.613Z,15.00
2019-03-12T07:42:42.455Z,14.50
2019-03-12T07:44:09.425Z,17.50
2019-03-12T07:45:29.531Z,12.50
2019-03-12T07:47:02.957Z,14.00
2019-03-12T07:48:31.966Z,13.50
2019-03-12T07:49:59.831Z,13.50
2019-03-12T07:51:36.648Z,18.00
2019-03-12T07:53:09.619Z,16.00
2019-03-12T07:54:32.432Z,18.50
2019-03-12T07:56:01.839Z,16.50
2019-03-12T07:57:23.574Z,9.50
2019-03-12T07:58:53.755Z,17.50
2019-03-12T08:00:06.251Z,12.00
2019-03-12T08:01:30.769Z,15.50
2019-03-12T08:02:57.682Z,12.50
2019-03-12T08:04:34.447Z,10.00
2019-03-12T08:05:56.602Z,12.50
2019-03-12T08:07:38.794Z,8.00
2019-03-12T08:09:06.863Z,9.50
2019-03-12T08:10:15.956Z,10.25
2019-03-12T08:11:43.522Z,9.50
2019-03-12T08:13:03.667Z,11.25
2019-03-12T08:14:37.073Z,8.50
2019-03-12T08:16:00.070Z,8.00
2019-03-12T08:17:19.171Z,10.75
2019-03-12T08:18:35.545Z,11.00
2019-03-12T08:20:10.804Z,11.00
2019-03-12T08:21:31.058Z,7.00
2019-03-12T08:23:04.444Z,9.25
2019-03-12T08:24:35.415Z,9.50
2019-03-12T08:25:55.744Z,7.75
2019-03-12T08:27:09.271Z,8.25
2019-03-12T08:28:13.769Z,9.00
2019-03-12T08:29:26.314Z,8.00
2019-03-12T08:30:34.172Z,6.00
2019-03-12T08:32:07.602Z,10.00
2019-03-12T08:33:49.777Z,8.25
2019-03-12T08:34:53.543Z,7.00
2019-03-12T08:36:21.461Z,5.00
2019-03-12T08:37:43.015Z,5.00
2019-03-12T08:38:58.718Z,11.25
2019-03-12T08:40:18.707Z,5.75
2019-03-12T08:41:41.930Z,6.75
2019-03-12T08:43:03.496Z,5.75
2019-03-12T08:44:31.317Z,5.75
2019-03-12T08:45:54.566Z,3.75
2019-03-12T08:47:16.050Z,4.75
2019-03-12T08:48:36.342Z,9.00
2019-03-12T08:49:50.524Z,7.75
2019-03-12T08:51:10.897Z,7.75
2019-03-12T08:52:30.801Z,6.00
2019-03-12T08:53:41.466Z,5.50
2019-03-12T08:55:04.277Z,6.25
2019-03-12T08:56:29.252Z,5.75
2019-03-12T08:57:50.096Z,5.50
2019-03-12T08:59:11.578Z,6.00
2019-03-12T09:00:33.160Z,4.00
2019-03-12T09:01:58.096Z,7.00
2019-03-12T09:03:19.675Z,6.00
2019-03-12T09:04:46.185Z,4.50
2019-03-12T09:06:07.753Z,6.00
2019-03-12T09:07:20.752Z,8.00
2019-03-12T09:08:42.376Z,8.00
2019-03-12T09:10:00.357Z,6.50
2019-03-12T09:11:18.679Z,7.00
2019-03-12T09:12:30.184Z,7.50
2019-03-12T09:13:57.365Z,6.00
2019-03-12T09:15:30.197Z,6.00
2019-03-12T09:16:57.499Z,6.00
2019-03-12T09:18:31.169Z,6.00
2019-03-12T09:19:58.192Z,6.00
2019-03-12T09:21:06.523Z,5.00
2019-03-12T09:22:33.908Z,4.00
2019-03-12T09:24:04.984Z,7.50
2019-03-12T09:25:24.576Z,6.50
2019-03-12T09:26:51.857Z,6.00
2019-03-12T09:28:14.249Z,7.50
2019-03-12T09:29:45.328Z,6.50
2019-03-12T09:31:05.742Z,5.50
2019-03-12T09:32:28.346Z,4.00
2019-03-12T09:33:46.509Z,6.50
2019-03-12T09:35:15.903Z,6.00
2019-03-12T09:36:46.307Z,4.00
2019-03-12T09:38:26.085Z,4.00
2019-03-12T09:39:53.541Z,6.00
2019-03-12T09:41:14.747Z,4.50
2019-03-12T09:42:37.650Z,6.00
2019-03-12T09:43:59.106Z,6.00
2019-03-12T09:45:11.345Z,7.50
2019-03-12T09:46:35.458Z,4.25
2019-03-12T09:47:58.153Z,7.25
2019-03-12T09:49:18.326Z,9.25
2019-03-12T09:50:35.078Z,5.25
2019-03-12T09:52:17.934Z,5.75
2019-03-12T09:53:37.918Z,5.75
2019-03-12T09:55:04.696Z,9.75
2019-03-12T09:56:27.106Z,5.75
2019-03-12T09:57:48.034Z,3.75
2019-03-12T09:59:06.556Z,5.00
2019-03-12T10:00:31.910Z,5.00
2019-03-12T10:02:05.559Z,7.00
2019-03-12T10:03:23.698Z,7.75
2019-03-12T10:04:45.233Z,5.50
2019-03-12T10:06:13.057Z,5.25
2019-03-12T10:07:49.881Z,3.75
2019-03-12T10:09:09.766Z,5.75
2019-03-12T10:10:29.919Z,5.25
2019-03-12T10:11:50.203Z,7.00
2019-03-12T10:13:20.372Z,5.00
2019-03-12T10:14:51.169Z,5.00
2019-03-12T10:16:15.607Z,5.00
2019-03-12T10:17:35.900Z,5.00
2019-03-12T10:19:09.646Z,4.75
2019-03-12T10:20:31.524Z,5.50
2019-03-12T10:21:49.697Z,5.00
2019-03-12T10:23:02.076Z,3.25
2019-03-12T10:24:21.234Z,6.00
2019-03-12T10:25:42.717Z,5.00
2019-03-12T10:26:57.551Z,5.00
2019-03-12T10:28:19.896Z,6.50
2019-03-12T10:29:49.997Z,5.25
2019-03-12T10:31:17.467Z,5.75
2019-03-12T10:32:30.391Z,5.75
2019-03-12T10:33:51.950Z,7.00
2019-03-12T10:35:03.017Z,3.25
2019-03-12T10:36:23.840Z,5.00
2019-03-12T10:37:46.211Z,3.00
2019-03-12T10:39:07.847Z,7.00
2019-03-12T10:40:22.830Z,4.50
2019-03-12T10:41:37.730Z,4.75
2019-03-12T10:42:48.260Z,5.00
2019-03-12T10:43:56.385Z,6.50
2019-03-12T10:45:08.508Z,5.00
2019-03-12T10:46:30.055Z,6.00
2019-03-12T10:47:34.228Z,4.75
2019-03-12T10:48:36.932Z,5.00
2019-03-12T10:49:42.871Z,5.00
2019-03-12T10:50:45.599Z,3.00
2019-03-12T10:51:57.827Z,5.00
2019-03-12T10:53:02.176Z,6.00
2019-03-12T10:54:05.009Z,9.00
2019-03-12T10:55:12.951Z,3.00
2019-03-12T10:56:16.827Z,5.00
2019-03-12T10:57:21.605Z,3.00
2019-03-12T10:58:24.419Z,6.00
2019-03-12T10:59:30.286Z,5.00
2019-03-12T11:00:33.766Z,5.50
2019-03-12T11:01:36.517Z,4.00
2019-03-12T11:02:40.713Z,4.50
2019-03-12T11:03:43.760Z,4.00
2019-03-12T11:04:49.722Z,3.00
2019-03-12T11:05:56.362Z,5.00
2019-03-12T11:06:59.175Z,3.50
2019-03-12T11:08:01.872Z,5.00
2019-03-12T11:09:11.751Z,4.50
2019-03-12T11:10:18.097Z,3.00
2019-03-12T11:11:21.200Z,4.00
2019-03-12T11:12:24.375Z,5.00
2019-03-12T11:13:27.514Z,6.00
2019-03-12T11:14:30.236Z,3.00
2019-03-12T11:15:33.070Z,7.00
2019-03-12T11:16:36.298Z,3.00
2019-03-12T11:17:48.985Z,4.00
2019-03-12T11:18:46.803Z,5.00
2019-03-12T11:19:49.581Z,3.00
2019-03-12T11:20:52.265Z,5.00
2019-03-12T11:21:56.213Z,7.00
2019-03-12T11:22:58.982Z,6.00
2019-03-12T11:24:01.786Z,5.00
2019-03-12T11:25:04.530Z,5.00
2019-03-12T11:26:07.759Z,5.00
2019-03-12T11:27:13.439Z,3.00
2019-03-12T11:28:16.229Z,3.00
2019-03-12T11:29:19.055Z,3.00
2019-03-12T11:42:49.802Z,5.25
2019-03-12T11:44:00.363Z,6.00
2019-03-12T11:45:13.720Z,5.00
2019-03-12T11:46:10.687Z,5.00
2019-03-12T11:47:13.588Z,3.00
2019-03-12T11:48:17.184Z,3.00
2019-03-12T11:49:20.130Z,5.00
2019-03-12T11:50:23.420Z,6.00
2019-03-12T11:51:26.180Z,4.00
2019-03-12T11:52:29.133Z,7.00
2019-03-12T11:53:32.958Z,5.00
2019-03-12T11:54:35.793Z,6.00
2019-03-12T11:55:45.892Z,5.00
2019-03-12T11:56:53.243Z,5.00
2019-03-12T11:57:55.478Z,3.50
2019-03-12T11:58:58.275Z,5.00
2019-03-12T12:00:03.001Z,4.50
2019-03-12T12:01:07.018Z,5.00
2019-03-12T12:02:09.729Z,4.00
2019-03-12T12:03:12.623Z,6.00
2019-03-12T12:04:15.482Z,5.00
2019-03-12T12:05:19.963Z,7.50
2019-03-12T12:06:23.154Z,5.00
2019-03-12T12:07:26.826Z,6.50
2019-03-12T12:08:29.659Z,5.00
2019-03-12T12:09:32.440Z,5.00
2019-03-12T12:10:35.263Z,6.00
2019-03-12T12:11:43.243Z,5.50
2019-03-12T12:12:46.033Z,5.00
2019-03-12T12:13:51.616Z,5.00
2019-03-12T12:15:02.104Z,6.00
2019-03-12T12:16:07.934Z,5.00
2019-03-12T12:17:13.327Z,4.00
2019-03-12T12:18:16.411Z,6.50
2019-03-12T12:19:19.204Z,5.00
2019-03-12T12:20:29.584Z,7.00
2019-03-12T12:21:26.480Z,3.00
2019-03-12T12:22:32.368Z,5.00
2019-03-12T12:23:35.193Z,5.00
2019-03-12T12:24:47.191Z,3.00
2019-03-12T12:25:49.979Z,4.00
2019-03-12T12:26:53.232Z,3.00
2019-03-12T12:27:55.956Z,5.00
2019-03-12T12:28:58.895Z,4.50
2019-03-12T12:30:02.141Z,7.00
2019-03-12T12:31:07.802Z,3.00
2019-03-12T12:32:10.549Z,5.50
2019-03-12T12:33:13.323Z,5.00
2019-03-12T12:34:18.083Z,5.00
2019-03-12T12:35:21.059Z,5.50
2019-03-12T12:36:24.303Z,3.50
2019-03-12T12:37:32.338Z,5.50
2019-03-12T12:38:35.476Z,5.50
2019-03-12T12:39:38.191Z,7.00
2019-03-12T12:40:44.232Z,6.00
2019-03-12T12:41:49.889Z,4.50
2019-03-12T12:42:54.338Z,5.00
2019-03-12T12:43:57.258Z,5.50
2019-03-12T12:45:01.883Z,4.00
2019-03-12T12:46:04.624Z,5.00
2019-03-12T12:47:07.307Z,5.00
2019-03-12T12:48:13.001Z,3.00
2019-03-12T12:49:16.125Z,5.50
2019-03-12T12:50:19.762Z,5.00
2019-03-12T12:51:23.621Z,4.00
2019-03-12T12:52:26.384Z,7.50
2019-03-12T12:53:31.938Z,3.50
2019-03-12T12:54:35.125Z,5.00
2019-03-12T12:55:39.606Z,5.00
2019-03-12T12:56:48.454Z,3.00
2019-03-12T12:57:54.369Z,5.00
2019-03-12T12:58:57.612Z,5.00
2019-03-12T13:00:03.348Z,4.00
2019-03-12T13:01:06.523Z,4.50
2019-03-12T13:02:10.370Z,3.00
2019-03-12T13:03:17.310Z,5.00
2019-03-12T13:04:21.153Z,6.00
2019-03-12T13:05:24.643Z,7.00
2019-03-12T13:06:29.025Z,6.00
2019-03-12T13:07:32.449Z,5.00
2019-03-12T13:08:39.201Z,5.00
2019-03-12T13:09:44.185Z,6.50
2019-03-12T13:10:46.976Z,3.00
2019-03-12T13:11:49.875Z,3.50
2019-03-12T13:12:55.158Z,5.00
2019-03-12T13:13:58.296Z,4.00
2019-03-12T13:15:03.519Z,5.00
2019-03-12T13:16:08.704Z,4.50
2019-03-12T13:17:14.022Z,3.00
2019-03-12T13:18:17.665Z,4.00
2019-03-12T13:19:20.448Z,5.00
2019-03-12T13:20:24.196Z,8.75
2019-03-12T13:21:27.116Z,8.50
2019-03-12T13:22:30.352Z,3.50
2019-03-12T13:23:38.850Z,3.00
2019-03-12T13:24:41.636Z,5.00
2019-03-12T13:25:47.654Z,5.00
2019-03-12T13:27:01.059Z,4.00
2019-03-12T13:28:03.803Z,5.00
2019-03-12T13:29:06.540Z,2.50
2019-03-12T13:30:09.707Z,7.00
2019-03-12T13:31:15.453Z,6.50
2019-03-12T13:32:18.419Z,3.50
2019-03-12T13:33:21.872Z,5.00
2019-03-12T13:34:26.482Z,5.00
2019-03-12T13:35:32.266Z,3.00
2019-03-12T13:36:35.043Z,3.50
2019-03-12T13:37:40.578Z,5.00
2019-03-12T13:38:48.263Z,2.00
2019-03-12T13:39:51.352Z,4.00
2019-03-12T13:40:54.219Z,3.00
2019-03-12T13:41:57.020Z,4.00
2019-03-12T13:43:01.886Z,3.00
2019-03-12T13:44:07.632Z,3.00
2019-03-12T13:45:11.231Z,3.50
2019-03-12T13:46:17.041Z,3.00
2019-03-12T13:47:21.529Z,4.50
2019-03-12T13:48:25.969Z,4.50
2019-03-12T13:49:31.829Z,3.00
2019-03-12T13:50:34.821Z,3.50
2019-03-12T13:51:41.804Z,5.00
2019-03-12T13:52:44.962Z,5.00
2019-03-12T13:53:48.649Z,3.50
2019-03-12T13:54:51.889Z,5.00
2019-03-12T13:55:56.906Z,5.00
2019-03-12T13:56:59.606Z,3.50
2019-03-12T13:58:02.719Z,5.00
2019-03-12T13:59:07.072Z,5.00
2019-03-12T14:00:17.212Z,5.50
2019-03-12T14:01:21.037Z,5.00
2019-03-12T14:02:26.235Z,4.50
2019-03-12T14:03:29.202Z,3.00
2019-03-12T14:04:31.905Z,5.00
2019-03-12T14:05:34.588Z,3.00
2019-03-12T14:06:38.911Z,6.50
2019-03-12T14:07:45.281Z,3.50
2019-03-12T14:08:51.129Z,5.00
2019-03-12T14:09:53.831Z,5.00
2019-03-12T14:10:56.997Z,3.00
2019-03-12T14:12:00.059Z,5.00
2019-03-12T14:13:03.887Z,3.50
2019-03-12T14:14:06.649Z,4.00
2019-03-12T14:15:20.919Z,5.00
2019-03-12T14:16:23.928Z,6.00
2019-03-12T14:17:27.130Z,7.00
2019-03-12T14:18:30.249Z,5.00
2019-03-12T14:19:37.374Z,3.00
2019-03-12T14:20:40.369Z,5.00
2019-03-12T14:21:46.267Z,3.00
2019-03-12T14:22:51.540Z,5.00
2019-03-12T14:23:54.327Z,4.00
2019-03-12T14:24:58.817Z,4.00
2019-03-12T14:26:01.596Z,3.50
2019-03-12T14:27:05.025Z,3.00
2019-03-12T14:28:08.554Z,5.00
2019-03-12T14:29:13.764Z,3.00
2019-03-12T14:30:18.758Z,5.00
2019-03-12T14:31:24.384Z,6.00
2019-03-12T14:32:27.202Z,5.00
2019-03-12T14:33:33.571Z,3.00
2019-03-12T14:34:39.693Z,4.50
2019-03-12T14:35:51.405Z,4.50
2019-03-12T14:36:47.292Z,6.00
2019-03-12T14:37:50.752Z,4.50
2019-03-12T14:38:56.207Z,5.00
2019-03-12T14:39:59.247Z,6.50
2019-03-12T14:41:02.441Z,5.00
2019-03-12T14:42:05.222Z,5.00
2019-03-12T14:43:08.908Z,6.75
2019-03-12T14:44:11.974Z,5.00
2019-03-12T14:45:15.020Z,5.00
2019-03-12T14:46:17.713Z,6.00
2019-03-12T14:47:21.029Z,5.00
2019-03-12T14:48:24.208Z,5.00
2019-03-12T14:49:26.996Z,4.00
2019-03-12T14:50:29.789Z,5.00
2019-03-12T14:51:32.561Z,4.50
2019-03-12T14:52:35.407Z,5.00
2019-03-12T14:53:38.842Z,5.00
2019-03-12T14:54:42.227Z,5.00
2019-03-12T14:55:45.009Z,5.00
2019-03-12T14:56:50.647Z,4.00
2019-03-12T14:57:53.742Z,4.50
2019-03-12T14:58:59.958Z,4.50
2019-03-12T15:00:08.806Z,7.00
2019-03-12T15:01:11.665Z,4.50
2019-03-12T15:02:15.493Z,5.00
2019-03-12T15:03:18.186Z,6.50
2019-03-12T15:04:23.741Z,3.00
2019-03-12T15:05:26.883Z,4.50
2019-03-12T15:06:31.786Z,4.50
2019-03-12T15:07:38.176Z,3.00
2019-03-12T15:08:43.093Z,5.00
2019-03-12T15:09:46.398Z,3.00
2019-03-12T15:10:49.824Z,5.00
2019-03-12T15:11:53.071Z,5.00
2019-03-12T15:12:56.090Z,3.00
2019-03-12T15:13:58.864Z,5.00
2019-03-12T15:15:01.575Z,5.00
2019-03-12T15:16:04.617Z,5.00
2019-03-12T15:17:10.243Z,5.50
2019-03-12T15:18:16.203Z,4.50
2019-03-12T15:19:19.210Z,5.50